createdAt,value
2023-03-09T00:02:42.234Z,67.82
2023-03-09T00:07:45.099Z,61.20
2023-03-09T00:12:46.497Z,83.85
2023-03-09T00:17:47.830Z,105.95
2023-03-09T00:22:50.913Z,72.95
2023-03-09T00:27:53.721Z,70.75
2023-03-09T00:32:55.212Z,69.25
2023-03-09T00:37:56.714Z,80.38
2023-03-09T00:42:58.082Z,72.32
2023-03-09T00:47:59.445Z,81.60
2023-03-09T00:53:00.810Z,97.47
2023-03-09T00:58:02.243Z,76.18
2023-03-09T01:03:04.097Z,70.00
2023-03-09T01:08:05.499Z,59.15
2023-03-09T01:13:06.937Z,66.43
2023-03-09T01:18:08.497Z,65.82
2023-03-09T01:23:09.882Z,47.78
2023-03-09T01:28:11.761Z,39.78
2023-03-09T01:33:13.180Z,32.70
2023-03-09T01:38:14.629Z,25.50
2023-03-09T01:43:36.075Z,21.05
2023-03-09T01:48:37.536Z,15.52
2023-03-09T01:53:39.317Z,13.98
2023-03-09T01:58:40.769Z,20.48
2023-03-09T02:03:47.680Z,13.35
2023-03-09T02:08:56.478Z,17.23
2023-03-09T02:13:58.818Z,25.85
2023-03-09T02:19:00.349Z,29.30
2023-03-09T02:24:14.570Z,27.90
2023-03-09T02:29:16.710Z,27.35
2023-03-09T02:34:18.065Z,26.83
2023-03-09T02:39:35.256Z,25.95
2023-03-09T02:44:36.774Z,20.98
2023-03-09T02:49:38.648Z,25.67
2023-03-09T02:54:40.017Z,24.80
2023-03-09T02:59:41.440Z,18.65
2023-03-09T03:04:43.427Z,14.52
2023-03-09T03:09:44.948Z,12.68
2023-03-09T03:14:46.330Z,14.77
2023-03-09T03:19:47.984Z,13.05
2023-03-09T03:24:49.594Z,8.93
2023-03-09T03:29:53.972Z,10.13
2023-03-09T03:34:55.461Z,7.88
2023-03-09T03:39:57.019Z,9.13
2023-03-09T03:44:58.403Z,4.47
2023-03-09T03:49:59.721Z,5.32
2023-03-09T03:55:01.067Z,2.88
2023-03-09T04:00:05.904Z,3.50
2023-03-09T04:05:08.146Z,1.52
2023-03-09T04:10:10.084Z,1.40
2023-03-09T04:15:11.874Z,1.65
2023-03-09T04:20:13.371Z,1.70
2023-03-09T04:25:16.098Z,0.55
2023-03-09T04:30:21.299Z,0.40
2023-03-09T04:35:23.117Z,3.90
2023-03-09T04:40:24.489Z,1.55
2023-03-09T04:45:25.913Z,2.00
2023-03-09T04:50:27.386Z,0.40
2023-03-09T04:55:28.883Z,0.88
2023-03-09T05:00:30.885Z,0.35
2023-03-09T05:05:32.233Z,1.08
2023-03-09T05:10:33.576Z,4.15
2023-03-09T05:15:35.048Z,1.77
2023-03-09T05:20:38.980Z,2.15
2023-03-09T05:25:40.335Z,1.65
2023-03-09T05:30:41.756Z,1.45
2023-03-09T05:35:43.187Z,1.42
2023-03-09T05:40:44.650Z,2.40
2023-03-09T05:45:54.563Z,2.22
2023-03-09T05:51:00.643Z,0.65
2023-03-09T05:56:02.290Z,1.70
2023-03-09T06:01:03.727Z,1.23
2023-03-09T06:06:06.465Z,2.25
2023-03-09T06:11:08.231Z,4.57
2023-03-09T06:16:14.104Z,2.72
2023-03-09T06:21:15.549Z,1.40
2023-03-09T06:26:17.472Z,4.85
2023-03-09T06:31:20.254Z,2.67
2023-03-09T06:36:21.781Z,4.20
2023-03-09T06:41:32.634Z,3.05
2023-03-09T06:46:34.056Z,3.85
2023-03-09T06:51:35.459Z,4.88
2023-03-09T06:56:36.818Z,7.90
2023-03-09T07:01:38.375Z,5.32
2023-03-09T07:06:39.718Z,5.15
2023-03-09T07:11:41.061Z,4.97
2023-03-09T07:16:42.472Z,5.05
2023-03-09T07:21:43.918Z,6.05
2023-03-09T07:26:47.705Z,9.10
2023-03-09T07:31:49.216Z,9.75
2023-03-09T07:36:50.880Z,10.73
2023-03-09T07:41:52.358Z,13.93
2023-03-09T07:46:53.816Z,7.50
2023-03-09T07:51:57.134Z,8.02
2023-03-09T07:56:58.584Z,9.82
2023-03-09T08:01:59.989Z,9.32
2023-03-09T08:07:01.317Z,10.32
2023-03-09T08:12:02.729Z,9.85
2023-03-09T08:17:04.896Z,6.40
2023-03-09T08:22:06.225Z,13.07
2023-03-09T08:27:07.624Z,7.35
2023-03-09T08:32:10.650Z,7.97
2023-03-09T08:37:12.112Z,5.03
2023-03-09T08:42:13.524Z,8.98
2023-03-09T08:47:14.926Z,4.50
2023-03-09T08:52:16.259Z,3.65
2023-03-09T08:57:18.575Z,7.43
2023-03-09T09:02:20.179Z,4.38
2023-03-09T09:07:21.965Z,3.45
2023-03-09T09:12:23.290Z,3.88
2023-03-09T09:17:24.726Z,5.15
2023-03-09T09:22:26.895Z,4.18
2023-03-09T09:27:29.129Z,3.67
2023-03-09T09:32:30.559Z,3.78
2023-03-09T09:37:32.593Z,4.35
2023-03-09T09:42:38.895Z,6.20
2023-03-09T09:47:40.301Z,3.55
2023-03-09T09:53:04.553Z,2.50
2023-03-09T09:58:20.930Z,5.50
2023-03-09T10:03:32.415Z,4.63
2023-03-09T10:09:01.641Z,5.05
2023-03-09T10:14:25.370Z,1.83
2023-03-09T10:19:34.558Z,5.30
2023-03-09T10:24:48.283Z,4.25
2023-03-09T10:30:11.159Z,4.88
2023-03-09T10:35:22.782Z,6.82
2023-03-09T10:40:36.556Z,5.30
2023-03-09T10:45:37.883Z,4.72
2023-03-09T10:50:54.622Z,2.88
2023-03-09T10:56:06.683Z,3.38
2023-03-09T11:01:17.405Z,4.22
2023-03-09T11:06:35.893Z,4.07
2023-03-09T11:11:38.140Z,7.63
2023-03-09T11:16:51.139Z,5.90
2023-03-09T11:21:57.925Z,11.10
2023-03-09T11:27:07.353Z,3.33
2023-03-09T11:32:13.620Z,3.83
2023-03-09T11:37:22.324Z,4.80
2023-03-09T11:42:38.396Z,4.53
2023-03-09T11:47:43.884Z,3.38
2023-03-09T11:52:51.014Z,2.53
2023-03-09T11:57:59.318Z,3.28
2023-03-09T12:03:13.837Z,1.75
2023-03-09T12:08:20.876Z,2.95
2023-03-09T12:13:34.365Z,2.20
2023-03-09T12:18:39.525Z,4.60
2023-03-09T12:23:47.969Z,2.03
2023-03-09T12:28:59.546Z,1.98
2023-03-09T12:34:00.932Z,2.95
2023-03-09T12:39:24.179Z,1.83
2023-03-09T12:44:44.020Z,5.35
2023-03-09T12:49:49.213Z,2.55
2023-03-09T12:54:57.080Z,3.30
2023-03-09T13:00:20.944Z,5.70
2023-03-09T13:05:28.070Z,3.55
2023-03-09T13:10:33.142Z,7.03
2023-03-09T13:15:34.534Z,3.55
2023-03-09T13:20:37.837Z,2.95
2023-03-09T13:25:46.962Z,7.13
2023-03-09T13:30:49.488Z,6.38
2023-03-09T13:36:20.814Z,3.75
2023-03-09T13:41:26.811Z,3.65
2023-03-09T13:46:31.471Z,7.07
2023-03-09T13:51:40.166Z,2.88
2023-03-09T13:56:41.537Z,5.97
2023-03-09T14:01:43.149Z,5.47
2023-03-09T14:07:16.065Z,5.75
2023-03-09T14:12:06.447Z,6.97
2023-03-09T14:17:18.662Z,6.90
2023-03-09T14:22:26.242Z,4.68
2023-03-09T14:27:34.718Z,3.22
2023-03-09T14:32:36.191Z,6.65
2023-03-09T14:37:37.735Z,5.72
2023-03-09T14:42:39.179Z,5.30
2023-03-09T14:47:41.738Z,7.88
2023-03-09T14:52:43.908Z,2.67
2023-03-09T14:57:45.759Z,7.38
2023-03-09T15:02:48.400Z,5.07
2023-03-09T15:07:49.984Z,4.10
2023-03-09T15:12:51.948Z,2.40
2023-03-09T15:17:56.745Z,7.18
2023-03-09T15:22:58.124Z,4.88
2023-03-09T15:27:59.478Z,3.78
2023-03-09T15:33:00.910Z,5.90
2023-03-09T15:38:02.325Z,3.90
2023-03-09T15:43:03.728Z,5.18
2023-03-09T15:48:05.333Z,6.78
2023-03-09T15:53:08.133Z,4.28
2023-03-09T15:58:09.495Z,7.10
2023-03-09T16:03:10.824Z,7.40
2023-03-09T16:08:12.241Z,5.88
2023-03-09T16:13:16.576Z,8.23
2023-03-09T16:18:19.212Z,14.00
2023-03-09T16:23:20.653Z,5.30
2023-03-09T16:28:23.046Z,11.68
2023-03-09T16:33:24.452Z,7.20
2023-03-09T16:38:26.034Z,6.85
2023-03-09T16:43:27.540Z,8.05
2023-03-09T16:48:28.954Z,6.20
2023-03-09T16:53:32.128Z,8.98
2023-03-09T16:58:35.210Z,8.82
2023-03-09T17:03:36.545Z,7.03
2023-03-09T17:08:37.916Z,14.60
2023-03-09T17:13:42.003Z,10.40
2023-03-09T17:18:43.893Z,7.82
2023-03-09T17:23:45.284Z,16.70
2023-03-09T17:28:47.537Z,7.82
2023-03-09T17:33:49.027Z,9.30
2023-03-09T17:38:52.625Z,7.18
2023-03-09T17:43:54.081Z,10.18
2023-03-09T17:48:55.807Z,10.27
2023-03-09T17:53:57.156Z,9.73
2023-03-09T17:58:58.706Z,7.45
2023-03-09T18:04:00.726Z,14.65
2023-03-09T18:09:02.162Z,16.48
2023-03-09T18:14:04.557Z,12.80
2023-03-09T18:19:07.977Z,13.18
2023-03-09T18:24:10.377Z,10.57
2023-03-09T18:29:11.844Z,15.00
2023-03-09T18:34:13.232Z,12.60
2023-03-09T18:39:15.078Z,12.82
2023-03-09T18:44:16.444Z,15.50
2023-03-09T18:49:17.839Z,9.10
2023-03-09T18:54:19.199Z,12.70
2023-03-09T18:59:20.667Z,9.40
2023-03-09T19:04:24.440Z,13.05
2023-03-09T19:09:25.975Z,18.05
2023-03-09T19:14:27.984Z,10.60
2023-03-09T19:19:29.446Z,16.58
2023-03-09T19:24:30.839Z,16.52
2023-03-09T19:29:32.253Z,11.82
2023-03-09T19:34:33.672Z,8.23
2023-03-09T19:39:40.873Z,14.32
2023-03-09T19:44:45.351Z,14.85
2023-03-09T19:49:48.292Z,16.65
2023-03-09T19:54:49.831Z,9.70
2023-03-09T19:59:51.361Z,11.75
2023-03-09T20:04:52.750Z,11.27
2023-03-09T20:09:54.282Z,10.07
2023-03-09T20:14:55.787Z,17.77
2023-03-09T20:20:01.340Z,11.85
2023-03-09T20:25:02.835Z,7.50
2023-03-09T20:30:04.737Z,10.07
2023-03-09T20:35:06.663Z,19.17
2023-03-09T20:40:08.712Z,12.52
2023-03-09T20:45:12.150Z,5.95
2023-03-09T20:50:14.543Z,11.95
2023-03-09T20:55:17.265Z,7.32
2023-03-09T21:00:19.143Z,11.63
2023-03-09T21:05:20.575Z,6.93
2023-03-09T21:10:22.298Z,10.43
2023-03-09T21:15:24.275Z,14.50
2023-03-09T21:20:25.736Z,9.77
2023-03-09T21:25:27.190Z,12.85
2023-03-09T21:30:28.570Z,17.65
2023-03-09T21:35:29.934Z,12.77
2023-03-09T21:40:31.291Z,5.80
2023-03-09T21:45:32.613Z,8.43
2023-03-09T21:50:33.938Z,7.55
2023-03-09T21:55:37.431Z,7.65
2023-03-09T22:00:40.053Z,4.65
2023-03-09T22:05:42.711Z,3.63
2023-03-09T22:10:44.598Z,6.55
2023-03-09T22:15:45.955Z,4.82
2023-03-09T22:20:47.392Z,4.07
2023-03-09T22:25:48.748Z,4.72
2023-03-09T22:30:50.129Z,4.10
2023-03-09T22:36:03.905Z,8.45
2023-03-09T22:41:07.836Z,5.43
2023-03-09T22:46:15.966Z,4.90
2023-03-09T22:51:20.559Z,3.60
2023-03-09T22:56:23.422Z,4.07
2023-03-09T23:01:30.503Z,3.78
2023-03-09T23:06:32.326Z,4.70
2023-03-09T23:11:41.391Z,3.80
2023-03-09T23:16:43.187Z,3.67
2023-03-09T23:21:47.383Z,4.53
2023-03-09T23:26:54.101Z,5.05
2023-03-09T23:31:55.526Z,1.60
2023-03-09T23:36:56.937Z,3.47
2023-03-09T23:41:58.513Z,3.05
2023-03-09T23:46:59.846Z,3.35
2023-03-09T23:52:01.242Z,2.70
2023-03-09T23:57:02.623Z,2.97
